Time;durP1;ratioP1;P1;durP2;ratioP2;P2;SDS_P1;SDS_P2;PMS_P1;PMS_P2;Temp;Humidity;BMP_temperature;BMP_pressure;BME280_temperature;BME280_humidity;BME280_pressure;Samples;Min_cycle;Max_cycle;Signal;HPM_P1;HPM_P2
2023/07/26 07:01:43;;;;;;;3.90;2.15;;;19.00;99.90;21.30;101040.00;;;;6250999;22;1472266;-78
2023/07/26 07:04:10;;;;;;;0.52;0.50;;;19.10;99.90;20.10;101045.00;;;;6256792;22;20668;-77
2023/07/26 07:06:44;;;;;;;1.67;1.00;;;18.80;99.90;19.80;101045.00;;;;6282360;22;20152;-76
2023/07/26 07:09:15;;;;;;;2.22;2.00;;;18.40;99.90;20.00;101055.00;;;;6256907;22;20156;-76
2023/07/26 07:11:46;;;;;;;0.10;0.10;;;18.10;99.90;21.10;101005.00;;;;6256828;22;20253;-75
2023/07/26 07:14:13;;;;;;;0.38;0.38;;;18.60;99.90;22.30;101072.00;;;;6282978;22;20630;-76
2023/07/26 07:16:44;;;;;;;3.05;1.73;;;19.30;99.90;20.70;101054.00;;;;6256603;22;20167;-75
2023/07/26 07:19:10;;;;;;;2.35;2.20;;;19.20;99.90;23.20;101081.00;;;;6282329;22;20171;-75
2023/07/26 07:21:44;;;;;;;1.55;1.45;;;20.20;99.90;21.90;101073.00;;;;6256866;22;20156;-75
2023/07/26 07:24:21;;;;;;;1.00;1.00;;;20.40;99.90;22.50;101087.00;;;;6282919;22;20144;-75
2023/07/26 07:26:48;;;;;;;2.65;2.45;;;20.40;99.90;23.10;101082.00;;;;6255428;22;20152;-75
2023/07/26 07:29:42;;;;;;;2.00;1.38;;;20.60;99.90;23.00;101083.00;;;;6282041;22;20753;-76
2023/07/26 07:32:08;;;;;;;3.28;1.73;;;20.40;99.90;22.20;101099.00;;;;6281815;22;20168;-75
2023/07/26 07:34:39;;;;;;;7.72;2.78;;;20.90;99.90;22.80;101071.00;;;;6282051;22;20463;-75
2023/07/26 07:37:28;;;;;;;7.43;3.13;;;20.70;99.90;24.40;101113.00;;;;6281835;22;20210;-75
2023/07/26 07:39:55;;;;;;;1.77;1.17;;;22.00;99.90;24.90;101121.00;;;;6247316;22;20159;-76
2023/07/26 07:42:26;;;;;;;3.30;2.95;;;22.50;99.90;24.50;101067.00;;;;6282961;22;20572;-75
2023/07/26 07:44:55;;;;;;;2.83;2.63;;;22.10;99.90;22.50;101096.00;;;;6257083;22;20160;-74
2023/07/26 07:47:24;;;;;;;5.18;2.13;;;21.50;99.90;22.90;101105.00;;;;6283078;22;20186;-68
2023/07/26 07:49:53;;;;;;;0.10;0.10;;;21.50;99.90;26.60;101086.00;;;;6281761;22;20155;-68
2023/07/26 07:52:20;;;;;;;0.30;0.30;;;23.00;99.90;28.90;101165.00;;;;6309443;22;20206;-65
2023/07/26 07:54:51;;;;;;;0.10;0.10;;;25.20;99.90;29.70;101169.00;;;;6309135;22;20148;-68
2023/07/26 07:57:22;;;;;;;0.20;0.20;;;26.40;99.90;32.50;101133.00;;;;6281651;22;20158;-68
2023/07/26 07:59:54;;;;;;;0.63;0.52;;;28.10;99.90;33.40;101127.00;;;;6273277;22;20183;-68
2023/07/26 08:02:33;;;;;;;0.60;0.60;;;29.40;99.90;32.50;101119.00;;;;6251147;22;20240;-68
2023/07/26 08:05:00;;;;;;;0.10;0.10;;;29.40;99.90;32.30;101124.00;;;;6276427;22;20195;-68
2023/07/26 08:07:26;;;;;;;0.30;0.20;;;29.10;99.90;32.40;101124.00;;;;6249733;22;20141;-68
2023/07/26 08:10:08;;;;;;;0.20;0.20;;;29.20;99.90;32.30;101124.00;;;;6250906;22;20216;-68
2023/07/26 08:13:06;;;;;;;0.20;0.20;;;29.20;99.90;31.50;101143.00;;;;6251441;22;20153;-68
2023/07/26 08:15:49;;;;;;;0.10;0.10;;;29.60;99.90;30.00;101159.00;;;;6250454;22;20156;-68
2023/07/26 08:18:19;;;;;;;0.10;0.10;;;27.50;99.90;30.00;101176.00;;;;6250682;22;20561;-68
2023/07/26 08:21:14;;;;;;;0.52;0.38;;;26.90;99.90;30.30;101162.00;;;;6225544;22;20187;-68
2023/07/26 08:23:40;;;;;;;0.35;0.35;;;27.00;99.90;29.90;101170.00;;;;6277267;22;20173;-67
2023/07/26 08:26:10;;;;;;;0.52;0.43;;;26.80;99.90;29.50;101198.00;;;;6225007;22;20235;-67
2023/07/26 08:28:57;;;;;;;0.55;0.55;;;26.90;99.90;29.10;101208.00;;;;6250931;22;20464;-67
2023/07/26 08:31:26;;;;;;;0.10;0.10;;;26.20;99.90;30.50;101196.00;;;;6250753;22;20597;-67
2023/07/26 08:33:57;;;;;;;0.10;0.10;;;26.70;99.90;31.40;101177.00;;;;6250737;22;20471;-73
2023/07/26 08:36:49;;;;;;;0.57;0.57;;;27.50;99.90;31.40;101175.00;;;;6225973;22;20153;-73
2023/07/26 08:39:15;;;;;;;0.20;0.20;;;28.10;99.90;30.80;101190.00;;;;6250457;22;20145;-73
2023/07/26 08:41:41;;;;;;;0.35;0.35;;;27.70;99.90;31.80;101150.00;;;;6225078;22;20153;-73
2023/07/26 08:44:12;;;;;;;0.65;0.65;;;28.00;99.90;31.80;101187.00;;;;6250477;22;20165;-73
2023/07/26 08:46:48;;;;;;;7.55;1.27;;;28.50;99.90;28.30;101235.00;;;;6251103;22;20202;-73
2023/07/26 08:49:25;;;;;;;0.28;0.28;;;27.30;99.90;29.70;101213.00;;;;6225901;22;20163;-73
2023/07/26 08:51:51;;;;;;;0.32;0.32;;;26.80;99.90;25.90;101265.00;;;;6225484;22;20164;-73
2023/07/26 08:54:23;;;;;;;0.63;0.63;;;25.10;99.90;29.10;101239.00;;;;6250575;22;20561;-68
2023/07/26 08:57:00;;;;;;;2.00;1.65;;;25.70;99.90;29.60;101211.00;;;;6276082;22;20141;-68
2023/07/26 08:59:37;;;;;;;1.20;1.10;;;26.50;99.90;27.60;101217.00;;;;6253484;22;20161;-68
2023/07/26 09:02:17;;;;;;;0.10;0.10;;;25.70;99.90;29.00;101241.00;;;;6253595;22;20198;-73
2023/07/26 09:04:47;;;;;;;0.20;0.20;;;25.60;99.90;29.20;101236.00;;;;6254354;22;20163;-73
2023/07/26 09:07:14;;;;;;;0.73;0.73;;;26.10;99.90;30.50;101226.00;;;;6279069;22;20178;-72
2023/07/26 09:10:26;;;;;;;0.80;0.60;;;26.70;99.90;27.70;101256.00;;;;6252557;22;20168;-73
2023/07/26 09:13:06;;;;;;;0.15;0.15;;;26.30;99.90;29.50;101233.00;;;;6279882;22;20709;-73
2023/07/26 09:16:00;;;;;;;1.08;0.93;;;26.50;99.90;25.00;101284.00;;;;6279702;22;20133;-73
2023/07/26 09:18:32;;;;;;;0.45;0.45;;;24.30;99.90;24.10;101321.00;;;;6255538;22;20161;-72
2023/07/26 09:21:07;;;;;;;0.10;0.10;;;22.40;99.90;26.50;101291.00;;;;6305913;22;20620;-79
2023/07/26 09:23:45;;;;;;;0.10;0.10;;;23.20;99.90;26.80;101277.00;;;;6255526;22;20251;-74
2023/07/26 09:26:33;;;;;;;0.10;0.10;;;23.70;99.90;27.60;101264.00;;;;6255757;22;20152;-71
2023/07/26 09:29:15;;;;;;;0.10;0.10;;;23.90;99.90;28.00;101263.00;;;;6253816;22;20152;-75
2023/07/26 09:31:45;;;;;;;0.77;0.77;;;24.50;99.90;27.60;101267.00;;;;6280185;22;20140;-71
2023/07/26 09:34:18;;;;;;;0.20;0.20;;;24.80;99.90;27.80;101256.00;;;;6307029;22;20241;-71
2023/07/26 09:36:52;;;;;;;0.22;0.22;;;24.80;99.90;29.50;101245.00;;;;6255064;22;20160;-73
2023/07/26 09:39:21;;;;;;;0.60;0.60;;;25.80;99.90;26.50;101288.00;;;;6280328;22;20144;-74
2023/07/26 09:42:04;;;;;;;1.42;1.40;;;24.90;99.90;25.80;101285.00;;;;6307603;22;20264;-69
2023/07/26 09:44:30;;;;;;;0.82;0.80;;;23.90;99.90;27.10;101274.00;;;;6307830;22;20132;-76
2023/07/26 09:47:03;;;;;;;0.75;0.57;;;24.00;99.90;25.10;101309.00;;;;6254935;22;20163;-69
2023/07/26 09:49:35;;;;;;;1.52;1.20;;;23.10;99.90;26.80;101279.00;;;;6280747;22;20160;-70
2023/07/26 09:52:02;;;;;;;1.38;1.00;;;24.00;99.90;27.20;101290.00;;;;6281151;22;20159;-73
2023/07/26 09:54:33;;;;;;;0.40;0.40;;;24.30;99.90;28.90;101258.00;;;;6255650;22;20153;-76
2023/07/26 09:57:03;;;;;;;0.40;0.40;;;25.40;99.90;29.80;101251.00;;;;6254038;22;20648;-73
2023/07/26 09:59:33;;;;;;;0.32;0.32;;;26.50;99.90;30.40;101232.00;;;;6254687;22;20175;-69
2023/07/26 10:02:10;;;;;;;0.15;0.15;;;26.90;99.90;31.20;101220.00;;;;6254450;22;20180;-74
2023/07/26 10:04:50;;;;;;;1.75;0.90;;;27.60;99.90;28.70;101249.00;;;;6280867;22;20146;-72
2023/07/26 10:07:19;;;;;;;1.65;1.08;;;27.30;99.50;24.80;101285.00;;;;6280716;22;20148;-72
2023/07/26 10:09:56;;;;;;;3.22;1.40;;;24.10;99.90;25.60;101288.00;;;;6306658;22;20203;-72
2023/07/26 10:12:26;;;;;;;1.58;0.95;;;23.60;99.90;24.50;101318.00;;;;6280225;22;20243;-72
2023/07/26 10:14:56;;;;;;;0.65;0.65;;;22.90;99.90;24.60;101297.00;;;;6254871;22;20156;-72
2023/07/26 10:17:26;;;;;;;0.32;0.32;;;22.20;99.90;27.10;101285.00;;;;6280582;22;20151;-72
2023/07/26 10:20:27;;;;;;;0.28;0.28;;;23.50;99.90;29.00;101276.00;;;;6280352;22;20136;-70
2023/07/26 10:33:46;;;;;;;1.52;1.02;;;23.20;99.90;25.90;101235.00;;;;5090390;27;20497;-71
2023/07/26 10:36:17;;;;;;;0.10;0.10;;;23.70;99.90;28.30;101201.00;;;;5069209;28;20715;-72
2023/07/26 10:38:50;;;;;;;0.10;0.10;;;24.80;99.90;29.50;101222.00;;;;5069224;28;20221;-68
2023/07/26 10:41:28;;;;;;;0.17;0.17;;;26.20;99.90;29.00;101239.00;;;;5066408;28;20189;-68
2023/07/26 10:44:11;;;;;;;0.57;0.57;;;26.00;99.90;29.40;101238.00;;;;5064297;28;20190;-68
2023/07/26 10:46:52;;;;;;;2.03;0.73;;;26.30;99.90;28.70;101220.00;;;;5069223;28;20182;-69
2023/07/26 10:49:33;;;;;;;0.10;0.10;;;26.00;99.90;27.20;101262.00;;;;5069196;28;20177;-68
2023/07/26 10:52:37;;;;;;;4.20;0.63;;;24.90;99.90;27.80;101232.00;;;;5068905;28;20670;-68
2023/07/26 10:56:15;;;;;;;1.55;1.45;;;24.50;99.90;27.00;101261.00;;;;5059582;28;20193;-68
2023/07/26 11:00:23;;;;;;;0.20;0.20;;;24.40;99.90;28.30;101260.00;;;;5027013;28;20197;-68
2023/07/26 11:03:59;;;;;;;0.20;0.20;;;25.00;99.90;29.20;101247.00;;;;5042947;28;20213;-68
2023/07/26 11:07:34;;;;;;;;;;;;;;;;;;;;;
2023/07/26 11:11:02;;;;;;;2.53;1.48;;;27.00;99.90;27.50;101267.00;;;;4988336;28;20268;-68
2023/07/26 11:14:32;;;;;;;2.53;1.60;;;25.70;99.90;27.20;101262.00;;;;4951907;28;20216;-68
2023/07/26 11:17:31;;;;;;;0.35;0.35;;;25.20;99.90;27.40;101253.00;;;;4964742;28;20670;-68
2023/07/26 11:20:40;;;;;;;2.38;1.65;;;24.90;99.90;28.20;101256.00;;;;4929627;28;20239;-68
2023/07/26 11:23:31;;;;;;;2.08;1.05;;;25.10;99.90;26.80;101277.00;;;;4958131;28;20546;-68
2023/07/26 11:26:30;;;;;;;0.30;0.30;;;24.30;99.90;28.70;101253.00;;;;4952415;28;20244;-69
2023/07/26 11:29:22;;;;;;;0.15;0.15;;;25.20;99.90;30.20;101232.00;;;;5018576;28;20288;-71
2023/07/26 11:31:51;;;;;;;0.10;0.10;;;26.70;99.90;30.20;101231.00;;;;5054480;28;20229;-69
2023/07/26 11:34:25;;;;;;;0.15;0.15;;;27.20;99.90;30.40;101232.00;;;;5067417;28;20193;-69
2023/07/26 11:36:51;;;;;;;0.10;0.10;;;27.50;99.90;30.70;101223.00;;;;5074254;28;20186;-69
2023/07/26 11:39:28;;;;;;;0.10;0.10;;;27.50;99.70;30.90;101229.00;;;;5067953;28;20189;-67
2023/07/26 11:41:55;;;;;;;1.20;0.50;;;27.80;99.60;30.40;101224.00;;;;5069302;28;20181;-67
2023/07/26 11:44:24;;;;;;;1.38;1.27;;;27.70;98.40;27.10;101228.00;;;;5039849;28;20194;-71
2023/07/26 11:46:51;;;;;;;0.85;0.85;;;26.10;98.60;25.50;101289.00;;;;5054498;28;20249;-74
2023/07/26 11:49:21;;;;;;;0.75;0.75;;;23.90;99.90;27.00;101279.00;;;;5054379;28;20198;-72
2023/07/26 11:51:51;;;;;;;0.25;0.25;;;24.30;99.90;28.30;101270.00;;;;5035003;28;20237;-74
2023/07/26 11:54:17;;;;;;;2.30;1.23;;;25.20;99.90;25.50;101300.00;;;;5083286;28;20277;-84
2023/07/26 11:56:44;;;;;;;3.10;0.47;;;24.60;99.90;26.70;101283.00;;;;5052911;28;20281;-73
2023/07/26 11:59:36;;;;;;;0.20;0.20;;;24.40;99.90;28.60;101277.00;;;;5053806;28;20607;-73
2023/07/26 12:02:02;;;;;;;0.10;0.10;;;25.20;99.90;29.40;101263.00;;;;5037674;28;20236;-72
2023/07/26 12:04:33;;;;;;;0.30;0.30;;;25.90;99.90;29.70;101254.00;;;;5038879;28;20544;-71
2023/07/26 12:07:05;;;;;;;0.10;0.10;;;26.40;99.90;30.10;101248.00;;;;5054261;28;20201;-71
2023/07/26 12:09:34;;;;;;;0.13;0.13;;;26.70;99.40;30.50;101258.00;;;;5055098;28;20178;-72
2023/07/26 12:12:00;;;;;;;0.40;0.40;;;27.10;98.40;29.80;101268.00;;;;5053192;28;20214;-71
2023/07/26 12:14:31;;;;;;;1.35;1.25;;;26.90;98.70;29.60;101249.00;;;;5036891;28;20178;-71
2023/07/26 12:17:06;;;;;;;0.10;0.10;;;26.60;98.10;30.00;101247.00;;;;5054044;28;20186;-73
2023/07/26 12:20:02;;;;;;;0.10;0.10;;;26.70;98.60;29.30;101264.00;;;;5053949;28;20229;-72
2023/07/26 12:22:58;;;;;;;0.75;0.75;;;26.40;98.30;29.10;101210.00;;;;5038308;28;20355;-72
2023/07/26 12:25:38;;;;;;;0.10;0.10;;;26.00;98.80;28.60;101269.00;;;;5055287;28;20235;-75
2023/07/26 12:28:16;;;;;;;0.40;0.40;;;25.80;98.50;25.60;101261.00;;;;5062533;28;20194;-74
2023/07/26 12:30:42;;;;;;;0.70;0.47;;;24.10;99.40;27.10;101231.00;;;;5045293;28;20199;-75
2023/07/26 12:33:13;;;;;;;0.30;0.30;;;24.20;99.90;28.30;101227.00;;;;5062299;28;20237;-75
2023/07/26 12:35:44;;;;;;;0.10;0.10;;;24.70;99.90;28.30;101249.00;;;;5060203;28;20194;-74
2023/07/26 12:38:21;;;;;;;0.77;0.77;;;25.00;99.90;28.10;101256.00;;;;5060465;28;20220;-75
2023/07/26 12:40:51;;;;;;;2.67;2.50;;;25.00;99.90;24.70;101289.00;;;;5063107;28;20216;-75
2023/07/26 12:43:28;;;;;;;1.15;0.75;;;23.60;99.90;26.10;101276.00;;;;5061851;28;20208;-75
2023/07/26 12:45:56;;;;;;;5.10;1.55;;;23.90;99.90;26.20;101282.00;;;;5061715;28;20186;-75
2023/07/26 12:48:23;;;;;;;0.10;0.10;;;23.80;99.90;25.20;101281.00;;;;5061665;28;20552;-75
2023/07/26 12:50:55;;;;;;;0.90;0.45;;;23.30;99.90;27.90;101269.00;;;;5061671;28;20586;-75
2023/07/26 12:53:27;;;;;;;0.90;0.30;;;24.10;99.90;28.70;101222.00;;;;5062048;28;20238;-75
2023/07/26 12:55:53;;;;;;;0.10;0.10;;;25.10;99.90;29.40;101253.00;;;;5059357;28;20201;-75
2023/07/26 12:58:19;;;;;;;0.10;0.10;;;25.80;99.90;29.80;101244.00;;;;5061663;28;20194;-75
2023/07/26 13:00:47;;;;;;;0.32;0.32;;;26.00;99.70;29.20;101255.00;;;;5057243;28;20186;-75
2023/07/26 13:03:22;;;;;;;0.10;0.10;;;26.10;99.40;29.10;101248.00;;;;5057768;28;20182;-75
2023/07/26 13:06:25;;;;;;;0.30;0.30;;;25.80;99.30;29.50;101210.00;;;;5061378;28;20681;-76
2023/07/26 13:09:00;;;;;;;0.30;0.30;;;26.00;99.60;28.50;101238.00;;;;5061724;28;20272;-75
2023/07/26 13:11:28;;;;;;;0.30;0.30;;;25.80;99.90;29.50;101244.00;;;;5065251;28;20288;-75
2023/07/26 13:14:07;;;;;;;0.57;0.57;;;26.00;99.60;29.00;101253.00;;;;5035686;28;20551;-75
2023/07/26 13:16:33;;;;;;;0.40;0.40;;;26.00;99.10;26.30;101258.00;;;;5052297;28;20233;-75
2023/07/26 13:19:06;;;;;;;0.10;0.10;;;24.50;99.90;27.60;101263.00;;;;5040791;28;20719;-75
2023/07/26 13:21:37;;;;;;;0.10;0.10;;;24.40;99.90;28.30;101249.00;;;;5050293;28;20186;-75
2023/07/26 13:24:07;;;;;;;0.10;0.10;;;24.70;99.90;28.60;101213.00;;;;5052602;28;20186;-75
2023/07/26 13:26:33;;;;;;;0.13;0.13;;;25.00;99.90;28.90;101254.00;;;;5041459;28;20577;-75
2023/07/26 13:29:07;;;;;;;0.20;0.20;;;25.30;99.90;28.20;101266.00;;;;5047613;28;20182;-75
2023/07/26 13:32:14;;;;;;;0.10;0.10;;;25.20;99.90;28.30;101264.00;;;;5053890;28;20224;-75
2023/07/26 13:35:04;;;;;;;0.10;0.10;;;25.10;99.90;28.60;101225.00;;;;5021872;28;20643;-75
2023/07/26 13:37:52;;;;;;;0.13;0.13;;;25.20;99.90;26.30;101243.00;;;;4989409;28;20196;-75
2023/07/26 13:40:58;;;;;;;0.28;0.28;;;24.40;99.90;27.00;101268.00;;;;5030954;28;20636;-75
2023/07/26 13:44:07;;;;;;;0.20;0.20;;;24.30;99.90;26.90;101270.00;;;;5012153;28;20220;-75
2023/07/26 13:47:00;;;;;;;0.50;0.50;;;24.30;99.90;25.00;101284.00;;;;5027860;28;20216;-75
2023/07/26 13:50:08;;;;;;;0.10;0.10;;;23.20;99.90;26.70;101272.00;;;;5034718;28;20193;-75
2023/07/26 13:52:51;;;;;;;0.20;0.20;;;23.30;99.90;26.80;101264.00;;;;5031618;28;20206;-75
2023/07/26 13:55:37;;;;;;;0.10;0.10;;;23.70;99.90;26.80;101220.00;;;;5051634;28;20196;-75
2023/07/26 13:58:03;;;;;;;0.88;0.88;;;23.80;99.90;25.60;101276.00;;;;5041007;28;20227;-75
2023/07/26 14:00:50;;;;;;;1.85;1.75;;;23.50;99.90;25.50;101253.00;;;;5062475;28;20198;-75
2023/07/26 14:03:19;;;;;;;0.25;0.25;;;23.30;99.90;25.50;101281.00;;;;5046188;28;20188;-75
2023/07/26 14:05:48;;;;;;;1.27;1.13;;;23.10;99.90;25.10;101281.00;;;;5059900;28;20195;-75
2023/07/26 14:08:29;;;;;;;9.52;1.60;;;23.00;99.90;26.00;101278.00;;;;5042076;28;20546;-75
2023/07/26 14:11:15;;;;;;;0.20;0.20;;;23.30;99.90;27.30;101264.00;;;;5060141;28;20230;-76
2023/07/26 14:13:44;;;;;;;0.10;0.10;;;23.80;99.90;27.70;101228.00;;;;5058855;28;20194;-75
2023/07/26 14:16:13;;;;;;;0.10;0.10;;;24.10;99.90;28.00;101256.00;;;;5059746;28;20192;-75
2023/07/26 14:19:06;;;;;;;3.60;3.40;;;24.40;99.90;28.00;101252.00;;;;5059810;28;20272;-76
2023/07/26 14:21:37;;;;;;;0.82;0.82;;;24.70;99.90;28.30;101245.00;;;;5059067;28;20185;-75
2023/07/26 14:24:13;;;;;;;0.60;0.60;;;25.00;99.90;26.90;101254.00;;;;5059225;28;20186;-75
2023/07/26 14:27:22;;;;;;;0.77;0.77;;;24.50;99.90;28.10;101250.00;;;;5059211;28;20186;-75
2023/07/26 14:29:48;;;;;;;0.10;0.10;;;24.60;99.90;28.90;101247.00;;;;5061545;28;20553;-76
2023/07/26 14:32:21;;;;;;;1.55;1.13;;;25.20;99.90;27.90;101247.00;;;;5042976;28;20217;-75
2023/07/26 14:35:20;;;;;;;0.10;0.10;;;25.20;99.90;26.20;101258.00;;;;5060877;28;20182;-72
2023/07/26 14:38:04;;;;;;;2.53;1.48;;;24.20;99.90;26.00;101272.00;;;;5059948;28;20205;-73
2023/07/26 14:40:53;;;;;;;0.50;0.50;;;23.90;99.90;25.80;101268.00;;;;5068244;28;20192;-72
2023/07/26 14:43:53;;;;;;;0.20;0.20;;;23.40;99.90;26.00;101240.00;;;;5072176;28;20162;-73
2023/07/26 14:46:26;;;;;;;1.38;1.27;;;23.30;99.90;25.90;101270.00;;;;5055134;28;20190;-73
2023/07/26 14:48:57;;;;;;;0.63;0.63;;;23.50;99.90;25.70;101274.00;;;;5034506;28;20229;-73
2023/07/26 14:51:25;;;;;;;1.73;1.23;;;23.40;99.90;24.70;101286.00;;;;5061606;28;20210;-73
2023/07/26 14:54:01;;;;;;;0.10;0.10;;;22.70;99.90;26.50;101270.00;;;;5032323;28;20210;-73
2023/07/26 14:57:08;;;;;;;0.45;0.40;;;23.00;99.90;25.40;101268.00;;;;5043964;28;20202;-73
2023/07/26 15:00:19;;;;;;;0.40;0.40;;;22.90;99.90;26.30;101275.00;;;;5042225;28;20281;-73
2023/07/26 15:03:23;;;;;;;0.32;0.32;;;23.00;99.90;27.00;101249.00;;;;5045972;28;20548;-72
2023/07/26 15:06:10;;;;;;;0.65;0.65;;;23.90;99.90;27.70;101216.00;;;;5044061;28;20205;-72
2023/07/26 15:09:16;;;;;;;0.10;0.10;;;24.20;99.90;28.30;101168.00;;;;5050234;28;20261;-73
2023/07/26 15:12:13;;;;;;;31.65;6.38;;;24.60;99.90;28.60;101225.00;;;;5038146;28;20202;-73
2023/07/26 15:15:02;;;;;;;0.10;0.10;;;25.00;99.90;27.40;101243.00;;;;5036676;28;20623;-73
2023/07/26 15:18:01;;;;;;;0.10;0.10;;;24.80;99.90;27.40;101219.00;;;;5051236;28;20193;-72
2023/07/26 15:21:12;;;;;;;0.15;0.15;;;24.30;99.90;27.60;101237.00;;;;5048163;28;20209;-73
2023/07/26 15:24:11;;;;;;;0.40;0.40;;;24.20;99.90;26.40;101239.00;;;;5054758;28;20284;-73
2023/07/26 15:27:19;;;;;;;0.10;0.10;;;23.90;99.90;26.80;101248.00;;;;5050554;28;20682;-72
2023/07/26 15:30:11;;;;;;;0.35;0.30;;;23.50;99.90;24.70;101241.00;;;;5053385;28;20262;-72
2023/07/26 15:33:22;;;;;;;2.38;2.15;;;22.90;99.90;25.00;101255.00;;;;5055367;28;20249;-73
2023/07/26 15:36:18;;;;;;;10.10;1.65;;;22.50;99.90;26.20;101243.00;;;;5048898;28;20273;-72
2023/07/26 15:39:02;;;;;;;0.10;0.10;;;23.00;99.90;27.30;101233.00;;;;5061207;28;20594;-73
2023/07/26 15:41:51;;;;;;;0.10;0.10;;;23.50;99.90;27.50;101212.00;;;;5063390;28;20169;-73
2023/07/26 15:44:42;;;;;;;0.22;0.20;;;23.80;99.90;27.40;101231.00;;;;5061879;28;20190;-72
2023/07/26 15:47:35;;;;;;;0.20;0.20;;;24.00;99.90;27.60;101228.00;;;;5063166;28;20198;-72
2023/07/26 15:50:23;;;;;;;0.10;0.10;;;24.10;99.90;26.00;101237.00;;;;5062328;28;20251;-72
2023/07/26 15:53:07;;;;;;;0.10;0.10;;;23.50;99.90;26.50;101238.00;;;;5063443;28;20714;-72
2023/07/26 15:55:53;;;;;;;0.10;0.10;;;23.40;99.90;27.80;101220.00;;;;5063094;28;20205;-72
2023/07/26 15:58:42;;;;;;;0.30;0.30;;;24.00;99.90;27.70;101226.00;;;;5063026;28;20277;-72
2023/07/26 16:01:31;;;;;;;0.20;0.20;;;24.30;99.90;27.10;101229.00;;;;5060771;28;20186;-72
2023/07/26 16:04:15;;;;;;;0.22;0.22;;;23.90;99.90;27.00;101224.00;;;;5064397;28;20181;-73
2023/07/26 16:06:51;;;;;;;0.57;0.57;;;23.90;99.90;27.30;101179.00;;;;5063969;28;20185;-72
2023/07/26 16:09:29;;;;;;;0.10;0.10;;;23.90;99.90;27.20;101184.00;;;;5062554;28;20548;-73
2023/07/26 16:12:30;;;;;;;0.10;0.10;;;24.00;99.90;28.10;101216.00;;;;5045011;28;20327;-72
2023/07/26 16:15:31;;;;;;;0.10;0.10;;;24.30;99.90;28.30;101205.00;;;;5062681;28;20274;-72
2023/07/26 16:18:04;;;;;;;0.10;0.10;;;24.60;99.90;27.70;101202.00;;;;5062256;28;20294;-72
2023/07/26 16:20:49;;;;;;;0.43;0.43;;;24.40;99.90;27.80;101193.00;;;;5060923;28;20182;-72
2023/07/26 16:23:35;;;;;;;0.10;0.10;;;24.40;99.90;26.80;101165.00;;;;5060106;28;20556;-72
2023/07/26 16:26:01;;;;;;;0.10;0.10;;;23.90;99.90;27.00;101166.00;;;;5062141;28;20652;-72
2023/07/26 16:28:52;;;;;;;0.10;0.10;;;23.80;99.90;26.90;101202.00;;;;5062586;28;20205;-72
2023/07/26 16:31:17;;;;;;;0.32;0.32;;;23.70;99.90;26.70;101197.00;;;;5060565;28;20183;-72
2023/07/26 16:34:21;;;;;;;0.10;0.10;;;23.70;99.90;27.20;101181.00;;;;5063177;28;20182;-72
2023/07/26 16:36:58;;;;;;;0.10;0.10;;;23.60;99.90;27.30;101190.00;;;;5055747;28;20433;-71
2023/07/26 16:40:13;;;;;;;0.10;0.10;;;23.80;99.90;27.70;101185.00;;;;5061032;28;20597;-71
2023/07/26 16:42:57;;;;;;;0.10;0.10;;;24.00;99.90;27.90;101178.00;;;;5059090;28;20701;-71
2023/07/26 16:45:40;;;;;;;0.20;0.20;;;24.30;99.90;27.30;101178.00;;;;5063202;28;20188;-71
2023/07/26 16:48:06;;;;;;;0.10;0.10;;;24.20;99.90;27.40;101181.00;;;;5061212;28;20179;-71
2023/07/26 16:50:57;;;;;;;0.30;0.30;;;24.10;99.90;26.90;101190.00;;;;5061964;28;20556;-71
2023/07/26 16:53:27;;;;;;;0.55;0.55;;;23.90;99.90;26.90;101202.00;;;;5060117;28;20299;-71
2023/07/26 16:55:53;;;;;;;0.10;0.10;;;23.80;99.90;26.70;101208.00;;;;5040817;28;20536;-71
2023/07/26 16:58:26;;;;;;;0.10;0.10;;;23.60;99.90;26.80;101212.00;;;;5053226;28;20205;-70
2023/07/26 17:01:12;;;;;;;0.10;0.10;;;23.50;99.90;26.70;101214.00;;;;5052224;28;20182;-71
2023/07/26 17:04:19;;;;;;;1.77;0.45;;;23.50;99.90;26.60;101147.00;;;;5038593;28;20582;-71
2023/07/26 17:06:50;;;;;;;0.45;0.45;;;23.50;99.90;26.40;101189.00;;;;5046234;28;20204;-71
2023/07/26 17:09:36;;;;;;;0.10;0.10;;;23.20;99.90;25.20;101203.00;;;;5053462;28;20201;-71
2023/07/26 17:12:05;;;;;;;0.50;0.50;;;22.70;99.90;25.20;101173.00;;;;5052513;28;20245;-71
2023/07/26 17:14:51;;;;;;;0.52;0.52;;;22.50;99.90;25.90;101201.00;;;;5052936;28;20197;-70
2023/07/26 17:18:03;;;;;;;0.45;0.40;;;22.60;99.90;26.60;101194.00;;;;5068502;28;20402;-71
2023/07/26 17:21:05;;;;;;;0.20;0.20;;;22.90;99.90;26.20;101203.00;;;;5033196;28;20565;-71
2023/07/26 17:24:08;;;;;;;1.38;1.20;;;22.90;99.90;26.90;101189.00;;;;5041701;28;20185;-70
2023/07/26 17:27:20;;;;;;;0.15;0.15;;;23.20;99.90;26.30;101195.00;;;;5064577;28;20185;-70
2023/07/26 17:30:25;;;;;;;0.10;0.10;;;23.30;99.90;25.90;101211.00;;;;5053534;28;20193;-72
2023/07/26 17:33:14;;;;;;;0.10;0.10;;;22.80;99.90;26.60;101203.00;;;;5036059;28;20206;-72
2023/07/26 17:35:43;;;;;;;0.10;0.10;;;22.90;99.90;26.90;101187.00;;;;5053617;28;20182;-71
2023/07/26 17:38:11;;;;;;;0.10;0.10;;;23.20;99.90;26.40;101171.00;;;;5036467;28;20241;-72
2023/07/26 17:40:40;;;;;;;1.45;0.68;;;23.10;99.90;26.00;101200.00;;;;5038179;28;20259;-72
2023/07/26 17:43:09;;;;;;;0.98;0.50;;;23.00;99.90;26.10;101203.00;;;;5034696;28;20609;-71
2023/07/26 17:46:18;;;;;;;2.15;2.05;;;22.80;99.90;25.20;101220.00;;;;5034498;28;20214;-71
2023/07/26 17:49:13;;;;;;;0.22;0.22;;;22.70;99.90;25.80;101223.00;;;;5035444;28;20522;-72
2023/07/26 17:52:31;;;;;;;0.10;0.10;;;22.60;99.90;25.80;101226.00;;;;5053682;28;20228;-71
2023/07/26 17:55:20;;;;;;;0.17;0.17;;;22.60;99.90;25.80;101238.00;;;;5052941;28;20644;-71
2023/07/26 17:58:10;;;;;;;0.43;0.43;;;22.60;99.90;26.30;101226.00;;;;5061564;28;20229;-71
2023/07/26 18:00:57;;;;;;;0.10;0.10;;;22.80;99.90;26.30;101227.00;;;;5052945;28;20277;-71
2023/07/26 18:03:48;;;;;;;1.33;0.45;;;22.80;99.90;26.20;101177.00;;;;5060363;28;20185;-71
2023/07/26 18:06:17;;;;;;;0.10;0.10;;;22.80;99.90;26.00;101227.00;;;;5060576;28;20210;-71
2023/07/26 18:08:43;;;;;;;0.55;0.55;;;22.80;99.90;25.60;101233.00;;;;5042660;28;20216;-71
2023/07/26 18:11:11;;;;;;;0.40;0.40;;;22.60;99.90;25.60;101234.00;;;;5043506;28;20643;-71
2023/07/26 18:14:02;;;;;;;0.10;0.10;;;22.50;99.90;25.60;101232.00;;;;5062499;28;20201;-71
2023/07/26 18:16:31;;;;;;;0.10;0.10;;;22.40;99.90;25.90;101215.00;;;;5058495;28;20276;-71
2023/07/26 18:19:36;;;;;;;0.10;0.10;;;22.40;99.90;25.10;101230.00;;;;5044361;28;20255;-71
2023/07/26 18:22:25;;;;;;;0.75;0.75;;;22.10;99.90;25.30;101231.00;;;;5057519;28;20776;-71
2023/07/26 18:25:36;;;;;;;0.20;0.20;;;22.10;99.90;25.50;101234.00;;;;5060607;28;20196;-71
2023/07/26 18:28:31;;;;;;;0.20;0.20;;;22.10;99.90;25.00;101232.00;;;;5060889;28;20185;-71
2023/07/26 18:31:49;;;;;;;0.25;0.25;;;22.10;99.90;24.70;101247.00;;;;5059735;28;20228;-71
2023/07/26 18:34:58;;;;;;;0.10;0.10;;;21.80;99.90;25.20;101236.00;;;;5060446;28;20219;-71
2023/07/26 18:38:13;;;;;;;0.10;0.10;;;21.80;99.90;25.10;101245.00;;;;5058569;28;20205;-71
2023/07/26 18:41:21;;;;;;;0.10;0.10;;;21.60;99.90;25.00;101239.00;;;;5061114;28;20621;-71
2023/07/26 18:44:34;;;;;;;0.10;0.10;;;21.70;99.90;24.80;101240.00;;;;5060133;28;20182;-71
2023/07/26 18:47:40;;;;;;;0.13;0.13;;;21.60;99.90;24.90;101250.00;;;;5054618;28;20254;-71
2023/07/26 18:50:38;;;;;;;0.10;0.10;;;21.40;99.90;25.20;101233.00;;;;5057808;28;20190;-71
2023/07/26 18:53:47;;;;;;;0.10;0.10;;;21.60;99.90;25.10;101193.00;;;;5060550;28;20202;-71
2023/07/26 18:56:56;;;;;;;0.10;0.10;;;21.60;99.90;25.20;101250.00;;;;5063513;28;20203;-71
2023/07/26 19:00:32;;;;;;;1.25;1.17;;;21.80;99.90;25.30;101208.00;;;;5070065;28;20277;-71
2023/07/26 19:03:26;;;;;;;0.10;0.10;;;21.80;99.90;25.20;101255.00;;;;5065905;28;20553;-71
2023/07/26 19:06:36;;;;;;;0.10;0.10;;;21.60;99.90;25.40;101243.00;;;;4996728;28;20192;-71
2023/07/26 19:09:31;;;;;;;0.10;0.10;;;21.80;99.90;24.90;101236.00;;;;4997204;28;20206;-71